sensor_id;sensor_type;location;lat;lon;timestamp;P1;durP1;ratioP1;P2;durP2;ratioP2
37231;SDS011;23125;48.156;15.954;2023-03-23T00:01:27;1.65;;;1.30;;
37231;SDS011;23125;48.156;15.954;2023-03-23T00:03:56;3.38;;;1.45;;
37231;SDS011;23125;48.156;15.954;2023-03-23T00:06:25;2.85;;;1.58;;
37231;SDS011;23125;48.156;15.954;2023-03-23T00:08:53;2.42;;;1.50;;
37231;SDS011;23125;48.156;15.954;2023-03-23T00:11:25;3.40;;;1.33;;
37231;SDS011;23125;48.156;15.954;2023-03-23T00:13:56;2.03;;;1.58;;
37231;SDS011;23125;48.156;15.954;2023-03-23T00:16:26;2.28;;;1.48;;
37231;SDS011;23125;48.156;15.954;2023-03-23T00:19:15;2.28;;;1.50;;
37231;SDS011;23125;48.156;15.954;2023-03-23T00:21:44;3.35;;;1.70;;
37231;SDS011;23125;48.156;15.954;2023-03-23T00:24:12;2.50;;;1.42;;
37231;SDS011;23125;48.156;15.954;2023-03-23T00:26:42;2.40;;;1.50;;
37231;SDS011;23125;48.156;15.954;2023-03-23T00:29:19;2.35;;;1.65;;
37231;SDS011;23125;48.156;15.954;2023-03-23T00:31:48;2.65;;;1.50;;
37231;SDS011;23125;48.156;15.954;2023-03-23T00:34:15;2.65;;;1.55;;
37231;SDS011;23125;48.156;15.954;2023-03-23T00:36:47;4.70;;;1.95;;
37231;SDS011;23125;48.156;15.954;2023-03-23T00:39:15;2.63;;;1.60;;
37231;SDS011;23125;48.156;15.954;2023-03-23T00:41:43;2.30;;;1.60;;
37231;SDS011;23125;48.156;15.954;2023-03-23T00:44:10;2.92;;;1.70;;
37231;SDS011;23125;48.156;15.954;2023-03-23T00:46:44;2.55;;;1.77;;
37231;SDS011;23125;48.156;15.954;2023-03-23T00:49:16;2.97;;;1.83;;
37231;SDS011;23125;48.156;15.954;2023-03-23T00:51:45;3.92;;;1.77;;
37231;SDS011;23125;48.156;15.954;2023-03-23T00:54:11;4.47;;;1.83;;
37231;SDS011;23125;48.156;15.954;2023-03-23T00:56:37;3.42;;;1.70;;
37231;SDS011;23125;48.156;15.954;2023-03-23T00:59:04;1.80;;;1.40;;
37231;SDS011;23125;48.156;15.954;2023-03-23T01:01:30;2.55;;;1.35;;
37231;SDS011;23125;48.156;15.954;2023-03-23T01:03:59;3.85;;;1.73;;
37231;SDS011;23125;48.156;15.954;2023-03-23T01:06:32;2.80;;;1.60;;
37231;SDS011;23125;48.156;15.954;2023-03-23T01:09:01;2.42;;;1.20;;
37231;SDS011;23125;48.156;15.954;2023-03-23T01:11:28;2.53;;;1.67;;
37231;SDS011;23125;48.156;15.954;2023-03-23T01:13:54;2.65;;;1.40;;
37231;SDS011;23125;48.156;15.954;2023-03-23T01:16:20;2.33;;;1.30;;
37231;SDS011;23125;48.156;15.954;2023-03-23T01:18:47;2.05;;;1.58;;
37231;SDS011;23125;48.156;15.954;2023-03-23T01:21:14;3.72;;;1.88;;
37231;SDS011;23125;48.156;15.954;2023-03-23T01:23:42;3.30;;;1.50;;
37231;SDS011;23125;48.156;15.954;2023-03-23T01:26:10;1.42;;;1.08;;
37231;SDS011;23125;48.156;15.954;2023-03-23T01:28:40;2.22;;;1.27;;
37231;SDS011;23125;48.156;15.954;2023-03-23T01:31:08;2.63;;;1.48;;
37231;SDS011;23125;48.156;15.954;2023-03-23T01:33:37;2.05;;;1.38;;
37231;SDS011;23125;48.156;15.954;2023-03-23T01:36:04;2.65;;;1.55;;
37231;SDS011;23125;48.156;15.954;2023-03-23T01:38:33;1.60;;;1.27;;
37231;SDS011;23125;48.156;15.954;2023-03-23T01:41:00;4.13;;;1.52;;
37231;SDS011;23125;48.156;15.954;2023-03-23T01:43:27;2.70;;;1.40;;
37231;SDS011;23125;48.156;15.954;2023-03-23T01:45:53;2.05;;;1.42;;
37231;SDS011;23125;48.156;15.954;2023-03-23T01:53:24;3.80;;;1.58;;
37231;SDS011;23125;48.156;15.954;2023-03-23T01:55:55;3.05;;;1.67;;
37231;SDS011;23125;48.156;15.954;2023-03-23T01:58:24;3.95;;;1.48;;
37231;SDS011;23125;48.156;15.954;2023-03-23T02:03:20;2.58;;;1.42;;
37231;SDS011;23125;48.156;15.954;2023-03-23T02:05:48;2.28;;;1.23;;
37231;SDS011;23125;48.156;15.954;2023-03-23T02:08:16;2.88;;;1.40;;
37231;SDS011;23125;48.156;15.954;2023-03-23T02:10:43;4.43;;;1.40;;
37231;SDS011;23125;48.156;15.954;2023-03-23T02:13:10;2.15;;;1.30;;
37231;SDS011;23125;48.156;15.954;2023-03-23T02:18:08;2.42;;;1.42;;
37231;SDS011;23125;48.156;15.954;2023-03-23T02:26:20;3.00;;;1.50;;
37231;SDS011;23125;48.156;15.954;2023-03-23T02:35:17;5.00;;;1.45;;
37231;SDS011;23125;48.156;15.954;2023-03-23T02:37:50;3.25;;;1.55;;
37231;SDS011;23125;48.156;15.954;2023-03-23T02:40:24;3.45;;;1.70;;
37231;SDS011;23125;48.156;15.954;2023-03-23T02:42:55;5.15;;;1.40;;
37231;SDS011;23125;48.156;15.954;2023-03-23T02:45:24;1.63;;;1.20;;
37231;SDS011;23125;48.156;15.954;2023-03-23T02:47:53;2.58;;;1.60;;
37231;SDS011;23125;48.156;15.954;2023-03-23T02:50:24;2.05;;;1.40;;
37231;SDS011;23125;48.156;15.954;2023-03-23T02:52:53;2.88;;;1.35;;
37231;SDS011;23125;48.156;15.954;2023-03-23T02:55:23;3.42;;;1.52;;
37231;SDS011;23125;48.156;15.954;2023-03-23T02:57:52;3.40;;;1.45;;
37231;SDS011;23125;48.156;15.954;2023-03-23T03:00:19;4.15;;;1.77;;
37231;SDS011;23125;48.156;15.954;2023-03-23T03:02:47;2.45;;;1.65;;
37231;SDS011;23125;48.156;15.954;2023-03-23T03:08:18;2.43;;;1.57;;
37231;SDS011;23125;48.156;15.954;2023-03-23T03:11:02;2.22;;;1.40;;
37231;SDS011;23125;48.156;15.954;2023-03-23T03:13:34;2.33;;;1.30;;
37231;SDS011;23125;48.156;15.954;2023-03-23T03:16:27;3.22;;;1.80;;
37231;SDS011;23125;48.156;15.954;2023-03-23T03:21:43;2.67;;;1.40;;
37231;SDS011;23125;48.156;15.954;2023-03-23T03:24:13;3.30;;;1.60;;
37231;SDS011;23125;48.156;15.954;2023-03-23T03:26:42;2.30;;;1.58;;
37231;SDS011;23125;48.156;15.954;2023-03-23T03:29:21;3.28;;;1.50;;
37231;SDS011;23125;48.156;15.954;2023-03-23T03:31:51;3.43;;;1.93;;
37231;SDS011;23125;48.156;15.954;2023-03-23T03:34:22;3.00;;;1.77;;
37231;SDS011;23125;48.156;15.954;2023-03-23T03:36:49;3.97;;;1.73;;
37231;SDS011;23125;48.156;15.954;2023-03-23T03:39:18;3.15;;;1.67;;
37231;SDS011;23125;48.156;15.954;2023-03-23T03:41:46;3.28;;;1.95;;
37231;SDS011;23125;48.156;15.954;2023-03-23T03:44:12;2.90;;;1.48;;
37231;SDS011;23125;48.156;15.954;2023-03-23T03:46:38;3.13;;;1.67;;
37231;SDS011;23125;48.156;15.954;2023-03-23T03:49:06;2.90;;;1.95;;
37231;SDS011;23125;48.156;15.954;2023-03-23T03:51:34;2.97;;;2.00;;
37231;SDS011;23125;48.156;15.954;2023-03-23T03:54:01;3.22;;;1.75;;
37231;SDS011;23125;48.156;15.954;2023-03-23T03:56:28;3.22;;;1.92;;
37231;SDS011;23125;48.156;15.954;2023-03-23T03:58:54;3.17;;;1.60;;
37231;SDS011;23125;48.156;15.954;2023-03-23T04:01:20;2.92;;;1.77;;
37231;SDS011;23125;48.156;15.954;2023-03-23T04:03:50;3.15;;;1.83;;
37231;SDS011;23125;48.156;15.954;2023-03-23T04:06:17;4.45;;;2.08;;
37231;SDS011;23125;48.156;15.954;2023-03-23T04:08:44;2.53;;;1.73;;
37231;SDS011;23125;48.156;15.954;2023-03-23T04:11:12;3.65;;;2.05;;
37231;SDS011;23125;48.156;15.954;2023-03-23T04:13:40;3.00;;;2.05;;
37231;SDS011;23125;48.156;15.954;2023-03-23T04:16:07;4.30;;;2.10;;
37231;SDS011;23125;48.156;15.954;2023-03-23T04:18:34;3.00;;;1.77;;
37231;SDS011;23125;48.156;15.954;2023-03-23T04:21:01;3.38;;;1.90;;
37231;SDS011;23125;48.156;15.954;2023-03-23T04:23:28;2.70;;;1.50;;
37231;SDS011;23125;48.156;15.954;2023-03-23T04:25:56;3.17;;;2.03;;
37231;SDS011;23125;48.156;15.954;2023-03-23T04:28:26;2.58;;;1.83;;
37231;SDS011;23125;48.156;15.954;2023-03-23T04:33:19;3.05;;;1.88;;
37231;SDS011;23125;48.156;15.954;2023-03-23T04:35:50;3.97;;;2.03;;
37231;SDS011;23125;48.156;15.954;2023-03-23T04:38:19;3.28;;;1.98;;
37231;SDS011;23125;48.156;15.954;2023-03-23T04:40:46;3.65;;;2.15;;
37231;SDS011;23125;48.156;15.954;2023-03-23T04:43:17;3.83;;;2.20;;
37231;SDS011;23125;48.156;15.954;2023-03-23T04:45:52;3.45;;;2.08;;
37231;SDS011;23125;48.156;15.954;2023-03-23T04:48:27;3.85;;;2.03;;
37231;SDS011;23125;48.156;15.954;2023-03-23T04:50:58;3.22;;;2.00;;
37231;SDS011;23125;48.156;15.954;2023-03-23T04:55:54;4.30;;;2.22;;
37231;SDS011;23125;48.156;15.954;2023-03-23T04:58:20;3.85;;;2.40;;
37231;SDS011;23125;48.156;15.954;2023-03-23T05:00:47;3.53;;;2.00;;
37231;SDS011;23125;48.156;15.954;2023-03-23T05:03:16;5.90;;;2.60;;
37231;SDS011;23125;48.156;15.954;2023-03-23T05:05:43;3.90;;;1.95;;
37231;SDS011;23125;48.156;15.954;2023-03-23T05:08:17;4.07;;;1.95;;
37231;SDS011;23125;48.156;15.954;2023-03-23T05:10:53;6.05;;;2.47;;
37231;SDS011;23125;48.156;15.954;2023-03-23T05:13:24;5.03;;;2.33;;
37231;SDS011;23125;48.156;15.954;2023-03-23T05:15:50;3.10;;;2.08;;
37231;SDS011;23125;48.156;15.954;2023-03-23T05:18:16;3.78;;;2.10;;
37231;SDS011;23125;48.156;15.954;2023-03-23T05:20:42;4.47;;;2.30;;
37231;SDS011;23125;48.156;15.954;2023-03-23T05:23:11;4.67;;;2.50;;
37231;SDS011;23125;48.156;15.954;2023-03-23T05:25:38;3.60;;;2.40;;
37231;SDS011;23125;48.156;15.954;2023-03-23T05:28:08;3.83;;;2.17;;
37231;SDS011;23125;48.156;15.954;2023-03-23T05:30:37;3.47;;;2.03;;
37231;SDS011;23125;48.156;15.954;2023-03-23T05:33:04;3.45;;;2.05;;
37231;SDS011;23125;48.156;15.954;2023-03-23T05:35:30;4.55;;;2.05;;
37231;SDS011;23125;48.156;15.954;2023-03-23T05:37:56;3.85;;;2.10;;
37231;SDS011;23125;48.156;15.954;2023-03-23T05:40:22;3.65;;;2.08;;
37231;SDS011;23125;48.156;15.954;2023-03-23T05:42:50;3.28;;;2.03;;
37231;SDS011;23125;48.156;15.954;2023-03-23T05:45:17;3.63;;;2.20;;
37231;SDS011;23125;48.156;15.954;2023-03-23T05:47:44;4.90;;;2.35;;
37231;SDS011;23125;48.156;15.954;2023-03-23T05:50:11;4.22;;;2.53;;
37231;SDS011;23125;48.156;15.954;2023-03-23T05:52:38;5.35;;;1.90;;
37231;SDS011;23125;48.156;15.954;2023-03-23T05:55:05;4.68;;;2.70;;
37231;SDS011;23125;48.156;15.954;2023-03-23T05:57:33;3.53;;;2.45;;
37231;SDS011;23125;48.156;15.954;2023-03-23T05:59:59;3.80;;;2.22;;
37231;SDS011;23125;48.156;15.954;2023-03-23T06:02:30;4.70;;;2.40;;
37231;SDS011;23125;48.156;15.954;2023-03-23T06:04:56;6.20;;;2.60;;
37231;SDS011;23125;48.156;15.954;2023-03-23T06:07:23;4.70;;;2.40;;
37231;SDS011;23125;48.156;15.954;2023-03-23T06:09:49;2.95;;;1.98;;
37231;SDS011;23125;48.156;15.954;2023-03-23T06:12:16;5.30;;;2.85;;
37231;SDS011;23125;48.156;15.954;2023-03-23T06:14:46;6.80;;;2.63;;
37231;SDS011;23125;48.156;15.954;2023-03-23T06:17:13;6.07;;;2.30;;
37231;SDS011;23125;48.156;15.954;2023-03-23T06:19:45;7.38;;;2.63;;
37231;SDS011;23125;48.156;15.954;2023-03-23T06:22:12;7.97;;;2.33;;
37231;SDS011;23125;48.156;15.954;2023-03-23T06:24:38;3.42;;;2.05;;
37231;SDS011;23125;48.156;15.954;2023-03-23T06:27:04;4.07;;;2.40;;
37231;SDS011;23125;48.156;15.954;2023-03-23T06:29:30;4.07;;;2.75;;
37231;SDS011;23125;48.156;15.954;2023-03-23T06:31:57;7.82;;;3.05;;
37231;SDS011;23125;48.156;15.954;2023-03-23T06:34:25;7.15;;;2.72;;
37231;SDS011;23125;48.156;15.954;2023-03-23T06:36:51;5.93;;;3.17;;
37231;SDS011;23125;48.156;15.954;2023-03-23T06:39:17;6.40;;;2.55;;
37231;SDS011;23125;48.156;15.954;2023-03-23T06:41:43;3.90;;;2.60;;
37231;SDS011;23125;48.156;15.954;2023-03-23T06:44:09;3.78;;;2.67;;
37231;SDS011;23125;48.156;15.954;2023-03-23T06:46:38;5.97;;;2.42;;
37231;SDS011;23125;48.156;15.954;2023-03-23T06:49:06;5.45;;;3.28;;
37231;SDS011;23125;48.156;15.954;2023-03-23T06:51:32;10.73;;;3.10;;
37231;SDS011;23125;48.156;15.954;2023-03-23T06:53:58;7.18;;;3.45;;
37231;SDS011;23125;48.156;15.954;2023-03-23T06:56:24;3.20;;;1.80;;
37231;SDS011;23125;48.156;15.954;2023-03-23T06:58:50;5.47;;;3.20;;
37231;SDS011;23125;48.156;15.954;2023-03-23T07:01:16;5.43;;;2.75;;
37231;SDS011;23125;48.156;15.954;2023-03-23T07:03:42;3.53;;;2.40;;
37231;SDS011;23125;48.156;15.954;2023-03-23T07:06:09;4.57;;;2.53;;
37231;SDS011;23125;48.156;15.954;2023-03-23T07:08:36;4.75;;;2.60;;
37231;SDS011;23125;48.156;15.954;2023-03-23T07:11:02;4.80;;;2.78;;
37231;SDS011;23125;48.156;15.954;2023-03-23T07:13:28;4.72;;;2.67;;
37231;SDS011;23125;48.156;15.954;2023-03-23T07:15:55;4.35;;;2.45;;
37231;SDS011;23125;48.156;15.954;2023-03-23T07:18:21;5.65;;;3.42;;
37231;SDS011;23125;48.156;15.954;2023-03-23T07:20:50;9.02;;;5.32;;
37231;SDS011;23125;48.156;15.954;2023-03-23T07:23:17;10.00;;;4.97;;
37231;SDS011;23125;48.156;15.954;2023-03-23T07:25:43;6.18;;;3.78;;
37231;SDS011;23125;48.156;15.954;2023-03-23T07:28:11;9.85;;;5.20;;
37231;SDS011;23125;48.156;15.954;2023-03-23T07:30:38;11.35;;;5.85;;
37231;SDS011;23125;48.156;15.954;2023-03-23T07:33:05;6.88;;;4.47;;
37231;SDS011;23125;48.156;15.954;2023-03-23T07:35:31;6.07;;;3.83;;
37231;SDS011;23125;48.156;15.954;2023-03-23T07:37:58;6.32;;;4.10;;
37231;SDS011;23125;48.156;15.954;2023-03-23T07:40:25;8.27;;;4.38;;
37231;SDS011;23125;48.156;15.954;2023-03-23T07:42:53;9.57;;;4.18;;
37231;SDS011;23125;48.156;15.954;2023-03-23T07:45:21;7.03;;;4.10;;
37231;SDS011;23125;48.156;15.954;2023-03-23T07:47:47;6.97;;;4.35;;
37231;SDS011;23125;48.156;15.954;2023-03-23T07:50:13;7.45;;;4.70;;
37231;SDS011;23125;48.156;15.954;2023-03-23T07:52:40;5.75;;;3.60;;
37231;SDS011;23125;48.156;15.954;2023-03-23T07:55:09;6.73;;;3.73;;
37231;SDS011;23125;48.156;15.954;2023-03-23T07:57:45;4.65;;;3.05;;
37231;SDS011;23125;48.156;15.954;2023-03-23T08:00:15;4.38;;;2.70;;
37231;SDS011;23125;48.156;15.954;2023-03-23T08:02:48;4.63;;;3.38;;
37231;SDS011;23125;48.156;15.954;2023-03-23T08:05:22;4.07;;;2.53;;
37231;SDS011;23125;48.156;15.954;2023-03-23T08:07:51;5.70;;;3.47;;
37231;SDS011;23125;48.156;15.954;2023-03-23T08:10:19;6.53;;;3.53;;
37231;SDS011;23125;48.156;15.954;2023-03-23T08:12:50;5.85;;;3.40;;
37231;SDS011;23125;48.156;15.954;2023-03-23T08:15:17;6.78;;;3.25;;
37231;SDS011;23125;48.156;15.954;2023-03-23T08:17:44;5.63;;;2.90;;
37231;SDS011;23125;48.156;15.954;2023-03-23T08:20:11;6.03;;;2.90;;
37231;SDS011;23125;48.156;15.954;2023-03-23T08:22:38;5.28;;;3.35;;
37231;SDS011;23125;48.156;15.954;2023-03-23T08:25:06;6.53;;;3.15;;
37231;SDS011;23125;48.156;15.954;2023-03-23T08:27:33;4.55;;;2.88;;
37231;SDS011;23125;48.156;15.954;2023-03-23T08:30:00;4.90;;;2.67;;
37231;SDS011;23125;48.156;15.954;2023-03-23T08:32:25;5.93;;;2.65;;
37231;SDS011;23125;48.156;15.954;2023-03-23T08:34:52;4.47;;;3.00;;
37231;SDS011;23125;48.156;15.954;2023-03-23T08:37:18;3.92;;;2.78;;
37231;SDS011;23125;48.156;15.954;2023-03-23T08:39:44;3.17;;;2.30;;
37231;SDS011;23125;48.156;15.954;2023-03-23T08:42:10;5.18;;;1.80;;
37231;SDS011;23125;48.156;15.954;2023-03-23T08:44:37;4.18;;;2.17;;
37231;SDS011;23125;48.156;15.954;2023-03-23T08:47:03;3.38;;;2.20;;
37231;SDS011;23125;48.156;15.954;2023-03-23T08:49:31;5.18;;;1.83;;
37231;SDS011;23125;48.156;15.954;2023-03-23T08:51:59;6.15;;;2.60;;
37231;SDS011;23125;48.156;15.954;2023-03-23T08:54:25;4.60;;;2.15;;
37231;SDS011;23125;48.156;15.954;2023-03-23T08:56:51;2.95;;;2.45;;
37231;SDS011;23125;48.156;15.954;2023-03-23T08:59:17;5.53;;;2.88;;
37231;SDS011;23125;48.156;15.954;2023-03-23T09:01:43;9.93;;;5.07;;
37231;SDS011;23125;48.156;15.954;2023-03-23T09:04:09;9.52;;;5.45;;
37231;SDS011;23125;48.156;15.954;2023-03-23T09:06:36;6.45;;;2.78;;
37231;SDS011;23125;48.156;15.954;2023-03-23T09:09:02;3.97;;;2.03;;
37231;SDS011;23125;48.156;15.954;2023-03-23T09:11:34;4.63;;;2.65;;
37231;SDS011;23125;48.156;15.954;2023-03-23T09:14:02;4.93;;;2.97;;
37231;SDS011;23125;48.156;15.954;2023-03-23T09:16:29;4.50;;;2.92;;
37231;SDS011;23125;48.156;15.954;2023-03-23T09:18:55;4.35;;;2.20;;
37231;SDS011;23125;48.156;15.954;2023-03-23T09:21:22;5.68;;;2.47;;
37231;SDS011;23125;48.156;15.954;2023-03-23T09:23:50;4.70;;;2.50;;
37231;SDS011;23125;48.156;15.954;2023-03-23T09:26:17;4.35;;;2.13;;
37231;SDS011;23125;48.156;15.954;2023-03-23T09:28:43;5.28;;;2.45;;
37231;SDS011;23125;48.156;15.954;2023-03-23T09:31:10;3.22;;;2.05;;
37231;SDS011;23125;48.156;15.954;2023-03-23T09:33:38;4.32;;;2.20;;
37231;SDS011;23125;48.156;15.954;2023-03-23T09:36:04;3.40;;;2.03;;
37231;SDS011;23125;48.156;15.954;2023-03-23T09:38:33;3.38;;;1.90;;
37231;SDS011;23125;48.156;15.954;2023-03-23T09:41:15;3.78;;;1.92;;
37231;SDS011;23125;48.156;15.954;2023-03-23T09:43:47;3.88;;;1.95;;
37231;SDS011;23125;48.156;15.954;2023-03-23T09:46:25;3.58;;;1.70;;
37231;SDS011;23125;48.156;15.954;2023-03-23T09:49:03;6.82;;;3.85;;
37231;SDS011;23125;48.156;15.954;2023-03-23T09:54:19;11.57;;;7.18;;
37231;SDS011;23125;48.156;15.954;2023-03-23T09:56:53;3.55;;;2.15;;
37231;SDS011;23125;48.156;15.954;2023-03-23T10:04:46;5.90;;;1.80;;
37231;SDS011;23125;48.156;15.954;2023-03-23T10:07:15;4.30;;;2.63;;
37231;SDS011;23125;48.156;15.954;2023-03-23T10:09:44;2.83;;;2.05;;
37231;SDS011;23125;48.156;15.954;2023-03-23T10:15:09;2.97;;;1.90;;
37231;SDS011;23125;48.156;15.954;2023-03-23T10:17:45;6.75;;;2.72;;
37231;SDS011;23125;48.156;15.954;2023-03-23T10:23:32;2.75;;;2.03;;
37231;SDS011;23125;48.156;15.954;2023-03-23T10:28:52;2.25;;;1.52;;
37231;SDS011;23125;48.156;15.954;2023-03-23T10:31:28;2.65;;;1.50;;
37231;SDS011;23125;48.156;15.954;2023-03-23T10:33:59;13.57;;;7.00;;
37231;SDS011;23125;48.156;15.954;2023-03-23T10:36:50;4.20;;;2.00;;
37231;SDS011;23125;48.156;15.954;2023-03-23T10:39:38;2.85;;;1.52;;
37231;SDS011;23125;48.156;15.954;2023-03-23T10:44:59;2.63;;;1.70;;
37231;SDS011;23125;48.156;15.954;2023-03-23T10:47:26;8.05;;;3.70;;
37231;SDS011;23125;48.156;15.954;2023-03-23T10:49:57;3.42;;;1.80;;
37231;SDS011;23125;48.156;15.954;2023-03-23T10:52:41;6.47;;;3.33;;
37231;SDS011;23125;48.156;15.954;2023-03-23T10:55:18;4.57;;;2.60;;
37231;SDS011;23125;48.156;15.954;2023-03-23T10:58:04;4.25;;;2.30;;
37231;SDS011;23125;48.156;15.954;2023-03-23T11:00:42;4.82;;;2.22;;
37231;SDS011;23125;48.156;15.954;2023-03-23T11:08:15;8.48;;;4.88;;
37231;SDS011;23125;48.156;15.954;2023-03-23T11:10:51;6.63;;;4.13;;
37231;SDS011;23125;48.156;15.954;2023-03-23T11:13:20;3.25;;;1.50;;
37231;SDS011;23125;48.156;15.954;2023-03-23T11:15:49;5.22;;;2.38;;
37231;SDS011;23125;48.156;15.954;2023-03-23T11:18:19;6.45;;;3.97;;
37231;SDS011;23125;48.156;15.954;2023-03-23T11:20:50;4.80;;;1.92;;
37231;SDS011;23125;48.156;15.954;2023-03-23T11:23:21;4.60;;;3.00;;
37231;SDS011;23125;48.156;15.954;2023-03-23T11:31:43;4.32;;;2.35;;
37231;SDS011;23125;48.156;15.954;2023-03-23T11:34:15;3.38;;;1.83;;
37231;SDS011;23125;48.156;15.954;2023-03-23T11:36:47;5.45;;;3.50;;
37231;SDS011;23125;48.156;15.954;2023-03-23T11:39:23;7.63;;;4.60;;
37231;SDS011;23125;48.156;15.954;2023-03-23T11:41:51;3.40;;;1.90;;
37231;SDS011;23125;48.156;15.954;2023-03-23T11:44:20;6.47;;;3.40;;
37231;SDS011;23125;48.156;15.954;2023-03-23T11:47:04;8.43;;;4.80;;
37231;SDS011;23125;48.156;15.954;2023-03-23T11:50:16;6.60;;;4.03;;
37231;SDS011;23125;48.156;15.954;2023-03-23T11:52:55;2.08;;;1.48;;
37231;SDS011;23125;48.156;15.954;2023-03-23T11:58:12;1.85;;;1.30;;
37231;SDS011;23125;48.156;15.954;2023-03-23T12:01:00;8.93;;;3.97;;
37231;SDS011;23125;48.156;15.954;2023-03-23T12:20:32;2.25;;;1.30;;
37231;SDS011;23125;48.156;15.954;2023-03-23T12:23:34;2.13;;;1.48;;
37231;SDS011;23125;48.156;15.954;2023-03-23T12:26:15;1.58;;;1.13;;
37231;SDS011;23125;48.156;15.954;2023-03-23T12:34:50;1.77;;;1.10;;
37231;SDS011;23125;48.156;15.954;2023-03-23T12:48:39;1.80;;;0.98;;
37231;SDS011;23125;48.156;15.954;2023-03-23T12:51:23;2.17;;;1.27;;
37231;SDS011;23125;48.156;15.954;2023-03-23T12:54:11;3.83;;;1.17;;
37231;SDS011;23125;48.156;15.954;2023-03-23T12:56:50;3.47;;;1.30;;
37231;SDS011;23125;48.156;15.954;2023-03-23T13:02:25;3.10;;;1.35;;
37231;SDS011;23125;48.156;15.954;2023-03-23T13:05:03;5.25;;;2.03;;
37231;SDS011;23125;48.156;15.954;2023-03-23T13:07:55;3.10;;;1.57;;
37231;SDS011;23125;48.156;15.954;2023-03-23T13:10:27;2.72;;;1.30;;
37231;SDS011;23125;48.156;15.954;2023-03-23T13:12:57;2.40;;;1.50;;
37231;SDS011;23125;48.156;15.954;2023-03-23T13:15:37;1.80;;;1.00;;
37231;SDS011;23125;48.156;15.954;2023-03-23T13:18:16;1.17;;;0.57;;
37231;SDS011;23125;48.156;15.954;2023-03-23T13:23:22;1.65;;;1.08;;
37231;SDS011;23125;48.156;15.954;2023-03-23T13:28:33;1.90;;;0.90;;
37231;SDS011;23125;48.156;15.954;2023-03-23T13:31:20;2.22;;;1.20;;
37231;SDS011;23125;48.156;15.954;2023-03-23T13:34:03;1.92;;;1.17;;
37231;SDS011;23125;48.156;15.954;2023-03-23T13:36:38;2.42;;;1.02;;
37231;SDS011;23125;48.156;15.954;2023-03-23T13:39:20;4.47;;;0.98;;
37231;SDS011;23125;48.156;15.954;2023-03-23T13:47:38;2.22;;;1.20;;
37231;SDS011;23125;48.156;15.954;2023-03-23T14:05:33;1.50;;;0.95;;
37231;SDS011;23125;48.156;15.954;2023-03-23T14:10:51;2.05;;;1.20;;
37231;SDS011;23125;48.156;15.954;2023-03-23T14:13:41;2.85;;;1.30;;
37231;SDS011;23125;48.156;15.954;2023-03-23T14:16:15;3.60;;;1.23;;
37231;SDS011;23125;48.156;15.954;2023-03-23T14:18:50;2.17;;;0.80;;
37231;SDS011;23125;48.156;15.954;2023-03-23T14:24:01;1.48;;;0.82;;
37231;SDS011;23125;48.156;15.954;2023-03-23T14:26:34;2.38;;;1.17;;
37231;SDS011;23125;48.156;15.954;2023-03-23T14:29:01;2.00;;;1.10;;
37231;SDS011;23125;48.156;15.954;2023-03-23T14:31:29;3.37;;;1.27;;
37231;SDS011;23125;48.156;15.954;2023-03-23T14:33:56;2.20;;;1.10;;
37231;SDS011;23125;48.156;15.954;2023-03-23T14:36:28;3.75;;;1.40;;
37231;SDS011;23125;48.156;15.954;2023-03-23T14:38:58;3.27;;;1.30;;
37231;SDS011;23125;48.156;15.954;2023-03-23T14:41:46;2.20;;;1.20;;
37231;SDS011;23125;48.156;15.954;2023-03-23T14:44:17;1.90;;;1.10;;
37231;SDS011;23125;48.156;15.954;2023-03-23T14:46:47;2.15;;;1.35;;
37231;SDS011;23125;48.156;15.954;2023-03-23T14:49:17;2.08;;;1.20;;
37231;SDS011;23125;48.156;15.954;2023-03-23T14:51:49;1.45;;;0.93;;
37231;SDS011;23125;48.156;15.954;2023-03-23T14:54:27;2.55;;;1.40;;
37231;SDS011;23125;48.156;15.954;2023-03-23T14:56:54;2.10;;;0.93;;
37231;SDS011;23125;48.156;15.954;2023-03-23T14:59:21;2.15;;;1.10;;
37231;SDS011;23125;48.156;15.954;2023-03-23T15:01:47;2.53;;;1.15;;
37231;SDS011;23125;48.156;15.954;2023-03-23T15:04:20;2.45;;;1.35;;
37231;SDS011;23125;48.156;15.954;2023-03-23T15:06:54;2.72;;;1.38;;
37231;SDS011;23125;48.156;15.954;2023-03-23T15:09:26;2.85;;;1.15;;
37231;SDS011;23125;48.156;15.954;2023-03-23T15:11:57;5.78;;;1.30;;
37231;SDS011;23125;48.156;15.954;2023-03-23T15:14:27;5.50;;;1.60;;
37231;SDS011;23125;48.156;15.954;2023-03-23T15:16:58;7.10;;;1.50;;
37231;SDS011;23125;48.156;15.954;2023-03-23T15:22:05;3.10;;;1.10;;
37231;SDS011;23125;48.156;15.954;2023-03-23T15:24:40;2.67;;;1.00;;
37231;SDS011;23125;48.156;15.954;2023-03-23T15:29:55;2.42;;;1.20;;
37231;SDS011;23125;48.156;15.954;2023-03-23T15:32:27;8.05;;;1.55;;
37231;SDS011;23125;48.156;15.954;2023-03-23T15:35:03;2.63;;;0.90;;
37231;SDS011;23125;48.156;15.954;2023-03-23T15:37:40;5.95;;;1.20;;
37231;SDS011;23125;48.156;15.954;2023-03-23T15:40:20;3.13;;;1.27;;
37231;SDS011;23125;48.156;15.954;2023-03-23T15:42:48;1.70;;;0.80;;
37231;SDS011;23125;48.156;15.954;2023-03-23T15:45:33;3.47;;;1.20;;
37231;SDS011;23125;48.156;15.954;2023-03-23T15:48:12;2.85;;;1.10;;
37231;SDS011;23125;48.156;15.954;2023-03-23T15:50:39;5.65;;;1.30;;
37231;SDS011;23125;48.156;15.954;2023-03-23T15:53:15;4.07;;;1.20;;
37231;SDS011;23125;48.156;15.954;2023-03-23T15:55:50;1.95;;;0.98;;
37231;SDS011;23125;48.156;15.954;2023-03-23T15:58:17;3.45;;;1.27;;
37231;SDS011;23125;48.156;15.954;2023-03-23T16:00:43;2.47;;;1.00;;
37231;SDS011;23125;48.156;15.954;2023-03-23T16:03:11;3.05;;;1.17;;
37231;SDS011;23125;48.156;15.954;2023-03-23T16:05:42;2.33;;;1.10;;
37231;SDS011;23125;48.156;15.954;2023-03-23T16:08:10;2.50;;;1.02;;
37231;SDS011;23125;48.156;15.954;2023-03-23T16:10:36;3.30;;;1.05;;
37231;SDS011;23125;48.156;15.954;2023-03-23T16:13:02;1.27;;;0.80;;
37231;SDS011;23125;48.156;15.954;2023-03-23T16:15:29;1.92;;;0.90;;
37231;SDS011;23125;48.156;15.954;2023-03-23T16:17:55;1.25;;;0.73;;
37231;SDS011;23125;48.156;15.954;2023-03-23T16:20:22;2.63;;;0.95;;
37231;SDS011;23125;48.156;15.954;2023-03-23T16:22:49;3.60;;;0.68;;
37231;SDS011;23125;48.156;15.954;2023-03-23T16:25:16;2.17;;;0.70;;
37231;SDS011;23125;48.156;15.954;2023-03-23T16:27:43;1.02;;;0.63;;
37231;SDS011;23125;48.156;15.954;2023-03-23T16:30:16;2.08;;;0.70;;
37231;SDS011;23125;48.156;15.954;2023-03-23T16:32:45;0.80;;;0.60;;
37231;SDS011;23125;48.156;15.954;2023-03-23T16:35:11;0.93;;;0.70;;
37231;SDS011;23125;48.156;15.954;2023-03-23T16:37:38;1.65;;;0.68;;
37231;SDS011;23125;48.156;15.954;2023-03-23T16:40:10;1.73;;;0.80;;
37231;SDS011;23125;48.156;15.954;2023-03-23T16:42:37;3.03;;;0.80;;
37231;SDS011;23125;48.156;15.954;2023-03-23T16:45:03;1.23;;;0.60;;
37231;SDS011;23125;48.156;15.954;2023-03-23T16:47:31;1.45;;;0.90;;
37231;SDS011;23125;48.156;15.954;2023-03-23T16:49:57;1.15;;;0.63;;
37231;SDS011;23125;48.156;15.954;2023-03-23T16:52:22;2.22;;;1.10;;
37231;SDS011;23125;48.156;15.954;2023-03-23T16:54:48;1.60;;;0.88;;
37231;SDS011;23125;48.156;15.954;2023-03-23T16:57:15;2.05;;;0.85;;
37231;SDS011;23125;48.156;15.954;2023-03-23T16:59:41;2.53;;;1.10;;
37231;SDS011;23125;48.156;15.954;2023-03-23T17:02:08;2.90;;;0.90;;
37231;SDS011;23125;48.156;15.954;2023-03-23T17:04:36;6.10;;;2.00;;
37231;SDS011;23125;48.156;15.954;2023-03-23T17:07:02;15.82;;;3.22;;
37231;SDS011;23125;48.156;15.954;2023-03-23T17:09:28;14.77;;;8.65;;
37231;SDS011;23125;48.156;15.954;2023-03-23T17:11:54;17.85;;;10.02;;